sensor_id;sensor_type;location;lat;lon;timestamp;P1;durP1;ratioP1;P2;durP2;ratioP2
16304;SDS011;8261;47.678;-122.174;2022-11-15T00:01:14;6.53;;;2.83;;
16304;SDS011;8261;47.678;-122.174;2022-11-15T00:03:46;5.00;;;3.40;;
16304;SDS011;8261;47.678;-122.174;2022-11-15T00:06:22;6.47;;;2.70;;
16304;SDS011;8261;47.678;-122.174;2022-11-15T00:08:53;5.33;;;2.90;;
16304;SDS011;8261;47.678;-122.174;2022-11-15T00:11:23;3.90;;;2.90;;
16304;SDS011;8261;47.678;-122.174;2022-11-15T00:13:55;4.53;;;3.07;;
16304;SDS011;8261;47.678;-122.174;2022-11-15T00:16:26;3.53;;;3.23;;
16304;SDS011;8261;47.678;-122.174;2022-11-15T00:18:56;7.17;;;3.60;;
16304;SDS011;8261;47.678;-122.174;2022-11-15T00:21:29;4.50;;;3.40;;
16304;SDS011;8261;47.678;-122.174;2022-11-15T00:23:59;4.23;;;3.50;;
16304;SDS011;8261;47.678;-122.174;2022-11-15T00:26:30;4.00;;;3.33;;
16304;SDS011;8261;47.678;-122.174;2022-11-15T00:29:00;5.13;;;3.27;;
16304;SDS011;8261;47.678;-122.174;2022-11-15T00:31:31;5.47;;;3.73;;
16304;SDS011;8261;47.678;-122.174;2022-11-15T00:34:02;5.00;;;3.60;;
16304;SDS011;8261;47.678;-122.174;2022-11-15T00:36:34;5.70;;;4.00;;
16304;SDS011;8261;47.678;-122.174;2022-11-15T00:39:05;4.97;;;3.73;;
16304;SDS011;8261;47.678;-122.174;2022-11-15T00:41:36;6.43;;;3.90;;
16304;SDS011;8261;47.678;-122.174;2022-11-15T00:44:06;5.17;;;3.60;;
16304;SDS011;8261;47.678;-122.174;2022-11-15T00:46:37;5.20;;;3.60;;
16304;SDS011;8261;47.678;-122.174;2022-11-15T00:49:08;6.43;;;3.30;;
16304;SDS011;8261;47.678;-122.174;2022-11-15T00:51:40;5.37;;;3.83;;
16304;SDS011;8261;47.678;-122.174;2022-11-15T00:54:10;5.30;;;3.40;;
16304;SDS011;8261;47.678;-122.174;2022-11-15T00:56:41;5.73;;;3.67;;
16304;SDS011;8261;47.678;-122.174;2022-11-15T00:59:12;5.37;;;3.50;;
16304;SDS011;8261;47.678;-122.174;2022-11-15T01:01:42;6.23;;;4.00;;
16304;SDS011;8261;47.678;-122.174;2022-11-15T01:04:13;4.10;;;3.63;;
16304;SDS011;8261;47.678;-122.174;2022-11-15T01:06:46;5.57;;;3.80;;
16304;SDS011;8261;47.678;-122.174;2022-11-15T01:09:16;4.53;;;3.57;;
16304;SDS011;8261;47.678;-122.174;2022-11-15T01:11:47;5.33;;;3.80;;
16304;SDS011;8261;47.678;-122.174;2022-11-15T01:14:17;5.57;;;3.83;;
16304;SDS011;8261;47.678;-122.174;2022-11-15T01:16:51;7.73;;;4.30;;
16304;SDS011;8261;47.678;-122.174;2022-11-15T01:19:22;6.30;;;4.20;;
16304;SDS011;8261;47.678;-122.174;2022-11-15T01:21:54;5.23;;;4.10;;
16304;SDS011;8261;47.678;-122.174;2022-11-15T01:24:25;7.87;;;4.67;;
16304;SDS011;8261;47.678;-122.174;2022-11-15T01:26:56;4.50;;;3.80;;
16304;SDS011;8261;47.678;-122.174;2022-11-15T01:29:26;8.60;;;4.17;;
16304;SDS011;8261;47.678;-122.174;2022-11-15T01:31:57;5.60;;;4.27;;
16304;SDS011;8261;47.678;-122.174;2022-11-15T01:34:28;6.33;;;4.20;;
16304;SDS011;8261;47.678;-122.174;2022-11-15T01:37:00;5.20;;;3.87;;
16304;SDS011;8261;47.678;-122.174;2022-11-15T01:39:31;8.10;;;4.07;;
16304;SDS011;8261;47.678;-122.174;2022-11-15T01:42:01;5.63;;;4.50;;
16304;SDS011;8261;47.678;-122.174;2022-11-15T01:44:39;6.33;;;4.00;;
16304;SDS011;8261;47.678;-122.174;2022-11-15T01:47:13;4.53;;;3.80;;
16304;SDS011;8261;47.678;-122.174;2022-11-15T01:49:49;5.53;;;4.47;;
16304;SDS011;8261;47.678;-122.174;2022-11-15T01:52:26;6.93;;;4.33;;
16304;SDS011;8261;47.678;-122.174;2022-11-15T01:55:00;5.30;;;4.10;;
16304;SDS011;8261;47.678;-122.174;2022-11-15T01:57:34;6.83;;;4.30;;
16304;SDS011;8261;47.678;-122.174;2022-11-15T02:00:05;8.87;;;4.40;;
16304;SDS011;8261;47.678;-122.174;2022-11-15T02:02:37;5.47;;;4.57;;
16304;SDS011;8261;47.678;-122.174;2022-11-15T02:05:08;6.87;;;4.83;;
16304;SDS011;8261;47.678;-122.174;2022-11-15T02:07:41;7.53;;;4.80;;
16304;SDS011;8261;47.678;-122.174;2022-11-15T02:10:12;6.53;;;4.40;;
16304;SDS011;8261;47.678;-122.174;2022-11-15T02:12:46;7.50;;;5.10;;
16304;SDS011;8261;47.678;-122.174;2022-11-15T02:15:18;6.33;;;5.17;;
16304;SDS011;8261;47.678;-122.174;2022-11-15T02:17:56;10.00;;;5.60;;
16304;SDS011;8261;47.678;-122.174;2022-11-15T02:20:43;7.33;;;5.13;;
16304;SDS011;8261;47.678;-122.174;2022-11-15T02:29:26;7.33;;;4.87;;
16304;SDS011;8261;47.678;-122.174;2022-11-15T02:32:10;8.53;;;5.33;;
16304;SDS011;8261;47.678;-122.174;2022-11-15T02:34:50;8.80;;;5.47;;
16304;SDS011;8261;47.678;-122.174;2022-11-15T02:37:26;6.70;;;5.00;;
16304;SDS011;8261;47.678;-122.174;2022-11-15T02:40:06;7.20;;;5.20;;
16304;SDS011;8261;47.678;-122.174;2022-11-15T02:42:45;8.07;;;5.40;;
16304;SDS011;8261;47.678;-122.174;2022-11-15T02:45:38;7.13;;;5.17;;
16304;SDS011;8261;47.678;-122.174;2022-11-15T02:48:16;8.77;;;5.30;;
16304;SDS011;8261;47.678;-122.174;2022-11-15T02:50:49;9.73;;;5.33;;
16304;SDS011;8261;47.678;-122.174;2022-11-15T02:53:23;7.10;;;5.23;;
16304;SDS011;8261;47.678;-122.174;2022-11-15T02:55:55;7.90;;;4.93;;
16304;SDS011;8261;47.678;-122.174;2022-11-15T03:01:24;6.87;;;5.07;;
16304;SDS011;8261;47.678;-122.174;2022-11-15T03:04:10;6.63;;;5.03;;
16304;SDS011;8261;47.678;-122.174;2022-11-15T03:06:49;7.87;;;5.53;;
16304;SDS011;8261;47.678;-122.174;2022-11-15T03:09:29;7.03;;;5.27;;
16304;SDS011;8261;47.678;-122.174;2022-11-15T03:12:06;8.53;;;5.47;;
16304;SDS011;8261;47.678;-122.174;2022-11-15T03:14:42;5.87;;;4.83;;
16304;SDS011;8261;47.678;-122.174;2022-11-15T03:17:23;7.73;;;5.40;;
16304;SDS011;8261;47.678;-122.174;2022-11-15T03:19:57;8.27;;;5.47;;
16304;SDS011;8261;47.678;-122.174;2022-11-15T03:22:33;9.37;;;5.80;;
16304;SDS011;8261;47.678;-122.174;2022-11-15T03:25:09;7.97;;;5.60;;
16304;SDS011;8261;47.678;-122.174;2022-11-15T03:27:43;7.83;;;5.77;;
16304;SDS011;8261;47.678;-122.174;2022-11-15T03:30:19;7.70;;;5.23;;
16304;SDS011;8261;47.678;-122.174;2022-11-15T03:32:50;9.67;;;5.50;;
16304;SDS011;8261;47.678;-122.174;2022-11-15T03:35:25;9.60;;;5.37;;
16304;SDS011;8261;47.678;-122.174;2022-11-15T03:37:57;8.37;;;5.43;;
16304;SDS011;8261;47.678;-122.174;2022-11-15T03:40:34;8.70;;;5.77;;
16304;SDS011;8261;47.678;-122.174;2022-11-15T03:43:09;6.57;;;5.17;;
16304;SDS011;8261;47.678;-122.174;2022-11-15T03:45:45;7.33;;;5.50;;
16304;SDS011;8261;47.678;-122.174;2022-11-15T03:48:21;8.13;;;5.43;;
16304;SDS011;8261;47.678;-122.174;2022-11-15T03:50:57;7.40;;;5.13;;
16304;SDS011;8261;47.678;-122.174;2022-11-15T03:53:28;7.93;;;4.97;;
16304;SDS011;8261;47.678;-122.174;2022-11-15T03:56:00;7.57;;;5.37;;
16304;SDS011;8261;47.678;-122.174;2022-11-15T03:58:31;6.63;;;5.10;;
16304;SDS011;8261;47.678;-122.174;2022-11-15T04:01:03;7.93;;;5.20;;
16304;SDS011;8261;47.678;-122.174;2022-11-15T04:03:34;6.03;;;4.80;;
16304;SDS011;8261;47.678;-122.174;2022-11-15T04:06:08;6.27;;;5.40;;
16304;SDS011;8261;47.678;-122.174;2022-11-15T04:08:39;7.43;;;4.93;;
16304;SDS011;8261;47.678;-122.174;2022-11-15T04:11:11;7.73;;;5.20;;
16304;SDS011;8261;47.678;-122.174;2022-11-15T04:13:42;7.63;;;4.93;;
16304;SDS011;8261;47.678;-122.174;2022-11-15T04:16:12;7.27;;;4.83;;
16304;SDS011;8261;47.678;-122.174;2022-11-15T04:18:43;8.20;;;4.93;;
16304;SDS011;8261;47.678;-122.174;2022-11-15T04:21:36;8.90;;;5.40;;
16304;SDS011;8261;47.678;-122.174;2022-11-15T04:24:24;11.60;;;5.37;;
16304;SDS011;8261;47.678;-122.174;2022-11-15T04:26:56;6.60;;;5.10;;
16304;SDS011;8261;47.678;-122.174;2022-11-15T04:29:27;10.53;;;5.93;;
16304;SDS011;8261;47.678;-122.174;2022-11-15T04:32:06;8.30;;;5.80;;
16304;SDS011;8261;47.678;-122.174;2022-11-15T04:34:37;7.50;;;5.20;;
16304;SDS011;8261;47.678;-122.174;2022-11-15T04:37:11;6.83;;;5.63;;
16304;SDS011;8261;47.678;-122.174;2022-11-15T04:39:41;8.00;;;5.23;;
16304;SDS011;8261;47.678;-122.174;2022-11-15T04:42:14;9.60;;;5.10;;
16304;SDS011;8261;47.678;-122.174;2022-11-15T04:44:45;9.07;;;5.37;;
16304;SDS011;8261;47.678;-122.174;2022-11-15T04:47:16;7.13;;;5.73;;
16304;SDS011;8261;47.678;-122.174;2022-11-15T04:49:49;7.70;;;5.23;;
16304;SDS011;8261;47.678;-122.174;2022-11-15T04:52:22;7.37;;;5.47;;
16304;SDS011;8261;47.678;-122.174;2022-11-15T04:54:53;6.97;;;5.53;;
16304;SDS011;8261;47.678;-122.174;2022-11-15T04:57:28;8.10;;;5.70;;
16304;SDS011;8261;47.678;-122.174;2022-11-15T05:00:00;8.67;;;6.00;;
16304;SDS011;8261;47.678;-122.174;2022-11-15T05:02:31;7.53;;;6.00;;
16304;SDS011;8261;47.678;-122.174;2022-11-15T05:05:18;8.43;;;6.03;;
16304;SDS011;8261;47.678;-122.174;2022-11-15T05:07:51;8.77;;;6.37;;
16304;SDS011;8261;47.678;-122.174;2022-11-15T05:10:22;10.47;;;6.93;;
16304;SDS011;8261;47.678;-122.174;2022-11-15T05:12:53;12.73;;;6.80;;
16304;SDS011;8261;47.678;-122.174;2022-11-15T05:15:25;12.03;;;7.33;;
16304;SDS011;8261;47.678;-122.174;2022-11-15T05:17:59;12.57;;;7.70;;
16304;SDS011;8261;47.678;-122.174;2022-11-15T05:20:30;9.47;;;6.27;;
16304;SDS011;8261;47.678;-122.174;2022-11-15T05:23:03;11.17;;;7.33;;
16304;SDS011;8261;47.678;-122.174;2022-11-15T05:25:35;12.87;;;7.27;;
16304;SDS011;8261;47.678;-122.174;2022-11-15T05:28:06;9.50;;;6.50;;
16304;SDS011;8261;47.678;-122.174;2022-11-15T05:30:37;8.17;;;5.97;;
16304;SDS011;8261;47.678;-122.174;2022-11-15T05:33:09;8.53;;;5.73;;
16304;SDS011;8261;47.678;-122.174;2022-11-15T05:35:42;7.77;;;5.17;;
16304;SDS011;8261;47.678;-122.174;2022-11-15T05:38:18;9.13;;;5.93;;
16304;SDS011;8261;47.678;-122.174;2022-11-15T05:40:50;8.37;;;5.90;;
16304;SDS011;8261;47.678;-122.174;2022-11-15T05:43:21;8.10;;;5.47;;
16304;SDS011;8261;47.678;-122.174;2022-11-15T05:45:53;7.93;;;5.77;;
16304;SDS011;8261;47.678;-122.174;2022-11-15T05:48:25;8.23;;;5.80;;
16304;SDS011;8261;47.678;-122.174;2022-11-15T05:50:57;6.87;;;5.57;;
16304;SDS011;8261;47.678;-122.174;2022-11-15T05:53:31;8.20;;;5.30;;
16304;SDS011;8261;47.678;-122.174;2022-11-15T05:56:03;8.50;;;5.43;;
16304;SDS011;8261;47.678;-122.174;2022-11-15T05:58:35;7.10;;;5.60;;
16304;SDS011;8261;47.678;-122.174;2022-11-15T06:01:06;7.10;;;5.10;;
16304;SDS011;8261;47.678;-122.174;2022-11-15T06:03:38;7.10;;;5.23;;
16304;SDS011;8261;47.678;-122.174;2022-11-15T06:06:09;7.20;;;5.37;;
16304;SDS011;8261;47.678;-122.174;2022-11-15T06:08:44;7.20;;;5.00;;
16304;SDS011;8261;47.678;-122.174;2022-11-15T06:11:15;6.33;;;5.13;;
16304;SDS011;8261;47.678;-122.174;2022-11-15T06:13:46;7.60;;;5.23;;
16304;SDS011;8261;47.678;-122.174;2022-11-15T06:16:16;6.70;;;4.90;;
16304;SDS011;8261;47.678;-122.174;2022-11-15T06:18:48;7.23;;;5.50;;
16304;SDS011;8261;47.678;-122.174;2022-11-15T06:21:19;7.30;;;5.40;;
16304;SDS011;8261;47.678;-122.174;2022-11-15T06:23:52;8.10;;;5.70;;
16304;SDS011;8261;47.678;-122.174;2022-11-15T06:26:24;7.00;;;5.13;;
16304;SDS011;8261;47.678;-122.174;2022-11-15T06:28:55;7.63;;;5.53;;
16304;SDS011;8261;47.678;-122.174;2022-11-15T06:31:26;6.53;;;4.90;;
16304;SDS011;8261;47.678;-122.174;2022-11-15T06:33:57;6.60;;;4.90;;
16304;SDS011;8261;47.678;-122.174;2022-11-15T06:36:29;5.93;;;4.77;;
16304;SDS011;8261;47.678;-122.174;2022-11-15T06:39:03;6.43;;;4.50;;
16304;SDS011;8261;47.678;-122.174;2022-11-15T06:41:34;8.30;;;4.60;;
16304;SDS011;8261;47.678;-122.174;2022-11-15T06:44:06;6.83;;;4.20;;
16304;SDS011;8261;47.678;-122.174;2022-11-15T06:46:37;7.37;;;4.93;;
16304;SDS011;8261;47.678;-122.174;2022-11-15T06:49:10;7.37;;;5.33;;
16304;SDS011;8261;47.678;-122.174;2022-11-15T06:51:40;6.37;;;4.47;;
16304;SDS011;8261;47.678;-122.174;2022-11-15T06:54:13;6.43;;;4.40;;
16304;SDS011;8261;47.678;-122.174;2022-11-15T06:56:44;7.27;;;4.97;;
16304;SDS011;8261;47.678;-122.174;2022-11-15T06:59:15;5.53;;;4.40;;
16304;SDS011;8261;47.678;-122.174;2022-11-15T07:01:46;5.67;;;4.27;;
16304;SDS011;8261;47.678;-122.174;2022-11-15T07:04:17;6.57;;;4.10;;
16304;SDS011;8261;47.678;-122.174;2022-11-15T07:06:50;5.30;;;4.30;;
16304;SDS011;8261;47.678;-122.174;2022-11-15T07:09:22;6.10;;;4.87;;
16304;SDS011;8261;47.678;-122.174;2022-11-15T07:11:53;6.53;;;4.13;;
16304;SDS011;8261;47.678;-122.174;2022-11-15T07:14:32;6.30;;;4.87;;
16304;SDS011;8261;47.678;-122.174;2022-11-15T07:17:03;7.10;;;4.30;;
16304;SDS011;8261;47.678;-122.174;2022-11-15T07:19:35;5.03;;;4.07;;
16304;SDS011;8261;47.678;-122.174;2022-11-15T07:22:05;6.73;;;5.00;;
16304;SDS011;8261;47.678;-122.174;2022-11-15T07:24:38;7.10;;;4.73;;
16304;SDS011;8261;47.678;-122.174;2022-11-15T07:27:09;6.67;;;4.70;;
16304;SDS011;8261;47.678;-122.174;2022-11-15T07:29:40;6.40;;;4.50;;
16304;SDS011;8261;47.678;-122.174;2022-11-15T07:32:12;8.50;;;4.67;;
16304;SDS011;8261;47.678;-122.174;2022-11-15T07:34:42;5.93;;;4.20;;
16304;SDS011;8261;47.678;-122.174;2022-11-15T07:37:14;7.33;;;4.60;;
16304;SDS011;8261;47.678;-122.174;2022-11-15T07:39:47;5.83;;;4.77;;
16304;SDS011;8261;47.678;-122.174;2022-11-15T07:42:18;6.63;;;4.37;;
16304;SDS011;8261;47.678;-122.174;2022-11-15T07:45:06;6.20;;;4.80;;
16304;SDS011;8261;47.678;-122.174;2022-11-15T07:47:38;7.30;;;4.37;;
16304;SDS011;8261;47.678;-122.174;2022-11-15T07:50:09;6.27;;;4.83;;
16304;SDS011;8261;47.678;-122.174;2022-11-15T07:52:42;5.63;;;4.33;;
16304;SDS011;8261;47.678;-122.174;2022-11-15T07:55:14;7.33;;;4.73;;
16304;SDS011;8261;47.678;-122.174;2022-11-15T07:57:46;5.03;;;4.07;;
16304;SDS011;8261;47.678;-122.174;2022-11-15T08:00:17;6.07;;;4.40;;
16304;SDS011;8261;47.678;-122.174;2022-11-15T08:02:48;4.90;;;4.00;;
16304;SDS011;8261;47.678;-122.174;2022-11-15T08:05:20;5.70;;;4.37;;
16304;SDS011;8261;47.678;-122.174;2022-11-15T08:07:52;6.37;;;4.23;;
16304;SDS011;8261;47.678;-122.174;2022-11-15T08:10:27;7.17;;;4.67;;
16304;SDS011;8261;47.678;-122.174;2022-11-15T08:13:06;7.93;;;4.23;;
16304;SDS011;8261;47.678;-122.174;2022-11-15T08:15:39;6.43;;;4.63;;
16304;SDS011;8261;47.678;-122.174;2022-11-15T08:18:11;5.93;;;5.00;;
16304;SDS011;8261;47.678;-122.174;2022-11-15T08:20:44;7.27;;;5.10;;
16304;SDS011;8261;47.678;-122.174;2022-11-15T08:23:15;6.10;;;4.53;;
16304;SDS011;8261;47.678;-122.174;2022-11-15T08:25:48;5.83;;;4.00;;
16304;SDS011;8261;47.678;-122.174;2022-11-15T08:28:19;5.40;;;4.47;;
16304;SDS011;8261;47.678;-122.174;2022-11-15T08:30:51;5.70;;;4.40;;
16304;SDS011;8261;47.678;-122.174;2022-11-15T08:33:23;5.03;;;3.80;;
16304;SDS011;8261;47.678;-122.174;2022-11-15T08:35:55;7.77;;;4.07;;
16304;SDS011;8261;47.678;-122.174;2022-11-15T08:38:27;5.67;;;3.83;;
16304;SDS011;8261;47.678;-122.174;2022-11-15T08:41:02;5.20;;;4.07;;
16304;SDS011;8261;47.678;-122.174;2022-11-15T08:43:34;7.27;;;4.57;;
16304;SDS011;8261;47.678;-122.174;2022-11-15T08:46:04;6.87;;;4.67;;
16304;SDS011;8261;47.678;-122.174;2022-11-15T08:48:36;5.50;;;4.13;;
16304;SDS011;8261;47.678;-122.174;2022-11-15T08:51:08;7.40;;;4.57;;
16304;SDS011;8261;47.678;-122.174;2022-11-15T08:53:40;6.43;;;4.80;;
16304;SDS011;8261;47.678;-122.174;2022-11-15T08:56:13;6.30;;;4.80;;
16304;SDS011;8261;47.678;-122.174;2022-11-15T08:58:45;6.57;;;4.60;;
16304;SDS011;8261;47.678;-122.174;2022-11-15T09:01:16;6.37;;;4.40;;
16304;SDS011;8261;47.678;-122.174;2022-11-15T09:03:48;6.07;;;4.47;;
16304;SDS011;8261;47.678;-122.174;2022-11-15T09:06:20;6.53;;;4.30;;
16304;SDS011;8261;47.678;-122.174;2022-11-15T09:08:51;6.80;;;4.80;;
16304;SDS011;8261;47.678;-122.174;2022-11-15T09:11:24;7.20;;;4.47;;
16304;SDS011;8261;47.678;-122.174;2022-11-15T09:13:54;8.67;;;4.90;;
16304;SDS011;8261;47.678;-122.174;2022-11-15T09:16:26;8.53;;;4.60;;
16304;SDS011;8261;47.678;-122.174;2022-11-15T09:18:57;6.07;;;4.53;;
16304;SDS011;8261;47.678;-122.174;2022-11-15T09:21:28;6.07;;;4.50;;
16304;SDS011;8261;47.678;-122.174;2022-11-15T09:23:59;7.27;;;4.53;;
16304;SDS011;8261;47.678;-122.174;2022-11-15T09:26:33;8.27;;;4.63;;
16304;SDS011;8261;47.678;-122.174;2022-11-15T09:29:04;4.87;;;4.17;;
16304;SDS011;8261;47.678;-122.174;2022-11-15T09:31:36;6.37;;;4.53;;
16304;SDS011;8261;47.678;-122.174;2022-11-15T09:34:07;6.50;;;4.53;;
16304;SDS011;8261;47.678;-122.174;2022-11-15T09:36:39;5.57;;;4.90;;
16304;SDS011;8261;47.678;-122.174;2022-11-15T09:39:11;6.90;;;4.97;;
16304;SDS011;8261;47.678;-122.174;2022-11-15T09:44:58;7.97;;;4.60;;
16304;SDS011;8261;47.678;-122.174;2022-11-15T09:50:50;9.43;;;4.23;;
16304;SDS011;8261;47.678;-122.174;2022-11-15T09:53:29;5.67;;;4.37;;
16304;SDS011;8261;47.678;-122.174;2022-11-15T09:56:27;5.80;;;4.27;;
16304;SDS011;8261;47.678;-122.174;2022-11-15T09:59:05;5.53;;;4.37;;
16304;SDS011;8261;47.678;-122.174;2022-11-15T10:01:48;6.37;;;3.93;;
16304;SDS011;8261;47.678;-122.174;2022-11-15T10:04:25;7.43;;;3.80;;
16304;SDS011;8261;47.678;-122.174;2022-11-15T10:07:02;6.60;;;4.60;;
16304;SDS011;8261;47.678;-122.174;2022-11-15T10:09:42;6.13;;;4.30;;
16304;SDS011;8261;47.678;-122.174;2022-11-15T10:12:18;5.83;;;4.17;;
16304;SDS011;8261;47.678;-122.174;2022-11-15T10:14:54;6.20;;;3.90;;
16304;SDS011;8261;47.678;-122.174;2022-11-15T10:20:30;5.63;;;4.10;;
16304;SDS011;8261;47.678;-122.174;2022-11-15T10:23:10;5.93;;;4.20;;
16304;SDS011;8261;47.678;-122.174;2022-11-15T10:25:44;5.00;;;4.17;;
16304;SDS011;8261;47.678;-122.174;2022-11-15T10:28:16;6.33;;;4.33;;
16304;SDS011;8261;47.678;-122.174;2022-11-15T10:30:56;5.03;;;4.00;;
16304;SDS011;8261;47.678;-122.174;2022-11-15T10:33:30;5.40;;;3.93;;
16304;SDS011;8261;47.678;-122.174;2022-11-15T10:36:16;7.80;;;4.00;;
16304;SDS011;8261;47.678;-122.174;2022-11-15T10:38:56;5.63;;;3.67;;
16304;SDS011;8261;47.678;-122.174;2022-11-15T10:44:18;5.43;;;3.80;;
16304;SDS011;8261;47.678;-122.174;2022-11-15T10:50:06;4.63;;;3.60;;
16304;SDS011;8261;47.678;-122.174;2022-11-15T10:52:56;6.03;;;3.70;;
16304;SDS011;8261;47.678;-122.174;2022-11-15T10:55:31;5.33;;;4.17;;
16304;SDS011;8261;47.678;-122.174;2022-11-15T10:58:05;6.47;;;3.67;;
16304;SDS011;8261;47.678;-122.174;2022-11-15T11:00:52;4.80;;;3.53;;
16304;SDS011;8261;47.678;-122.174;2022-11-15T11:03:29;5.53;;;3.90;;
16304;SDS011;8261;47.678;-122.174;2022-11-15T11:06:06;4.70;;;3.47;;
16304;SDS011;8261;47.678;-122.174;2022-11-15T11:08:40;4.60;;;3.50;;
16304;SDS011;8261;47.678;-122.174;2022-11-15T11:11:23;5.47;;;3.83;;
16304;SDS011;8261;47.678;-122.174;2022-11-15T11:13:54;5.00;;;3.53;;
16304;SDS011;8261;47.678;-122.174;2022-11-15T11:16:43;5.63;;;4.00;;
16304;SDS011;8261;47.678;-122.174;2022-11-15T11:22:22;5.30;;;3.20;;
16304;SDS011;8261;47.678;-122.174;2022-11-15T11:25:04;4.47;;;3.20;;
16304;SDS011;8261;47.678;-122.174;2022-11-15T11:27:49;8.23;;;3.90;;
16304;SDS011;8261;47.678;-122.174;2022-11-15T11:30:34;3.97;;;3.27;;
16304;SDS011;8261;47.678;-122.174;2022-11-15T11:33:17;5.13;;;3.40;;
16304;SDS011;8261;47.678;-122.174;2022-11-15T11:35:54;5.50;;;3.50;;
16304;SDS011;8261;47.678;-122.174;2022-11-15T11:38:37;4.93;;;3.50;;
16304;SDS011;8261;47.678;-122.174;2022-11-15T11:41:19;4.67;;;3.57;;
16304;SDS011;8261;47.678;-122.174;2022-11-15T11:44:18;5.20;;;3.33;;
16304;SDS011;8261;47.678;-122.174;2022-11-15T11:47:07;6.30;;;3.17;;
16304;SDS011;8261;47.678;-122.174;2022-11-15T11:49:42;5.07;;;3.53;;
16304;SDS011;8261;47.678;-122.174;2022-11-15T11:52:16;4.90;;;3.33;;
16304;SDS011;8261;47.678;-122.174;2022-11-15T11:54:56;4.13;;;3.13;;
16304;SDS011;8261;47.678;-122.174;2022-11-15T11:57:33;5.20;;;3.40;;
16304;SDS011;8261;47.678;-122.174;2022-11-15T12:00:15;4.87;;;3.40;;
16304;SDS011;8261;47.678;-122.174;2022-11-15T12:03:01;4.20;;;3.20;;
16304;SDS011;8261;47.678;-122.174;2022-11-15T12:05:39;5.43;;;3.20;;
16304;SDS011;8261;47.678;-122.174;2022-11-15T12:08:20;5.77;;;3.50;;
16304;SDS011;8261;47.678;-122.174;2022-11-15T12:11:07;4.83;;;3.30;;
16304;SDS011;8261;47.678;-122.174;2022-11-15T12:13:45;5.27;;;3.80;;
16304;SDS011;8261;47.678;-122.174;2022-11-15T12:16:21;4.90;;;3.43;;
16304;SDS011;8261;47.678;-122.174;2022-11-15T12:18:56;4.83;;;3.60;;
16304;SDS011;8261;47.678;-122.174;2022-11-15T12:21:34;6.17;;;3.80;;
16304;SDS011;8261;47.678;-122.174;2022-11-15T12:24:12;8.30;;;3.63;;
16304;SDS011;8261;47.678;-122.174;2022-11-15T12:26:52;4.30;;;3.40;;
16304;SDS011;8261;47.678;-122.174;2022-11-15T12:29:31;4.70;;;3.50;;
16304;SDS011;8261;47.678;-122.174;2022-11-15T12:32:11;5.57;;;3.67;;
16304;SDS011;8261;47.678;-122.174;2022-11-15T12:34:51;5.07;;;3.27;;
16304;SDS011;8261;47.678;-122.174;2022-11-15T12:40:24;5.70;;;3.47;;
16304;SDS011;8261;47.678;-122.174;2022-11-15T12:42:59;3.80;;;3.10;;
16304;SDS011;8261;47.678;-122.174;2022-11-15T12:45:40;4.30;;;3.07;;
16304;SDS011;8261;47.678;-122.174;2022-11-15T12:51:19;3.77;;;3.13;;
16304;SDS011;8261;47.678;-122.174;2022-11-15T12:53:52;4.67;;;3.00;;
16304;SDS011;8261;47.678;-122.174;2022-11-15T12:56:23;3.93;;;3.23;;
16304;SDS011;8261;47.678;-122.174;2022-11-15T12:58:57;4.93;;;3.40;;
16304;SDS011;8261;47.678;-122.174;2022-11-15T13:04:30;4.57;;;2.80;;
16304;SDS011;8261;47.678;-122.174;2022-11-15T13:07:02;4.50;;;3.30;;
16304;SDS011;8261;47.678;-122.174;2022-11-15T13:09:54;3.97;;;3.10;;
16304;SDS011;8261;47.678;-122.174;2022-11-15T13:15:51;3.67;;;2.57;;
16304;SDS011;8261;47.678;-122.174;2022-11-15T13:18:33;10.10;;;2.97;;
16304;SDS011;8261;47.678;-122.174;2022-11-15T13:24:10;4.23;;;3.20;;
16304;SDS011;8261;47.678;-122.174;2022-11-15T13:26:45;3.60;;;3.00;;
16304;SDS011;8261;47.678;-122.174;2022-11-15T13:29:17;3.70;;;2.73;;
16304;SDS011;8261;47.678;-122.174;2022-11-15T13:31:53;3.53;;;2.70;;
16304;SDS011;8261;47.678;-122.174;2022-11-15T13:34:25;4.43;;;3.20;;
16304;SDS011;8261;47.678;-122.174;2022-11-15T13:37:27;3.30;;;2.73;;
16304;SDS011;8261;47.678;-122.174;2022-11-15T13:40:10;5.00;;;3.40;;
16304;SDS011;8261;47.678;-122.174;2022-11-15T13:42:50;5.57;;;3.00;;
16304;SDS011;8261;47.678;-122.174;2022-11-15T13:45:21;4.67;;;3.07;;
16304;SDS011;8261;47.678;-122.174;2022-11-15T13:47:57;3.57;;;2.70;;
16304;SDS011;8261;47.678;-122.174;2022-11-15T13:50:29;3.63;;;2.73;;
16304;SDS011;8261;47.678;-122.174;2022-11-15T13:53:04;3.80;;;2.97;;
16304;SDS011;8261;47.678;-122.174;2022-11-15T13:55:36;4.40;;;3.30;;
16304;SDS011;8261;47.678;-122.174;2022-11-15T13:58:08;4.47;;;2.67;;
16304;SDS011;8261;47.678;-122.174;2022-11-15T14:00:41;4.37;;;2.90;;
16304;SDS011;8261;47.678;-122.174;2022-11-15T14:03:18;3.00;;;2.67;;
16304;SDS011;8261;47.678;-122.174;2022-11-15T14:06:02;3.63;;;2.97;;
16304;SDS011;8261;47.678;-122.174;2022-11-15T14:08:38;3.70;;;2.60;;
16304;SDS011;8261;47.678;-122.174;2022-11-15T14:11:13;3.90;;;2.90;;
16304;SDS011;8261;47.678;-122.174;2022-11-15T14:13:59;3.77;;;2.90;;
16304;SDS011;8261;47.678;-122.174;2022-11-15T14:16:36;3.70;;;2.80;;
16304;SDS011;8261;47.678;-122.174;2022-11-15T14:19:11;3.83;;;2.83;;
16304;SDS011;8261;47.678;-122.174;2022-11-15T14:22:09;3.87;;;2.80;;
16304;SDS011;8261;47.678;-122.174;2022-11-15T14:24:44;4.87;;;2.70;;
16304;SDS011;8261;47.678;-122.174;2022-11-15T14:27:17;3.13;;;2.80;;
16304;SDS011;8261;47.678;-122.174;2022-11-15T14:29:51;3.90;;;2.70;;
16304;SDS011;8261;47.678;-122.174;2022-11-15T14:32:27;3.23;;;2.63;;
16304;SDS011;8261;47.678;-122.174;2022-11-15T14:35:01;3.83;;;2.60;;
16304;SDS011;8261;47.678;-122.174;2022-11-15T14:37:33;3.23;;;2.53;;
16304;SDS011;8261;47.678;-122.174;2022-11-15T14:40:05;5.37;;;2.87;;
16304;SDS011;8261;47.678;-122.174;2022-11-15T14:42:37;3.70;;;2.70;;
16304;SDS011;8261;47.678;-122.174;2022-11-15T14:45:10;3.60;;;2.67;;
16304;SDS011;8261;47.678;-122.174;2022-11-15T14:47:45;6.47;;;3.10;;
16304;SDS011;8261;47.678;-122.174;2022-11-15T14:50:19;4.13;;;2.73;;
16304;SDS011;8261;47.678;-122.174;2022-11-15T14:52:50;3.53;;;2.83;;
16304;SDS011;8261;47.678;-122.174;2022-11-15T14:55:22;4.10;;;2.70;;
16304;SDS011;8261;47.678;-122.174;2022-11-15T14:57:56;6.00;;;3.13;;
16304;SDS011;8261;47.678;-122.174;2022-11-15T15:00:27;3.90;;;3.00;;
16304;SDS011;8261;47.678;-122.174;2022-11-15T15:03:01;3.87;;;3.10;;
16304;SDS011;8261;47.678;-122.174;2022-11-15T15:05:36;4.70;;;2.67;;
16304;SDS011;8261;47.678;-122.174;2022-11-15T15:08:08;3.57;;;2.70;;
16304;SDS011;8261;47.678;-122.174;2022-11-15T15:10:40;5.07;;;2.90;;
16304;SDS011;8261;47.678;-122.174;2022-11-15T15:13:15;3.63;;;2.87;;
16304;SDS011;8261;47.678;-122.174;2022-11-15T15:15:48;3.87;;;3.00;;
16304;SDS011;8261;47.678;-122.174;2022-11-15T15:18:20;3.60;;;2.53;;
16304;SDS011;8261;47.678;-122.174;2022-11-15T15:20:55;3.63;;;2.90;;
16304;SDS011;8261;47.678;-122.174;2022-11-15T15:23:28;6.17;;;2.73;;
16304;SDS011;8261;47.678;-122.174;2022-11-15T15:25:58;4.83;;;3.00;;
16304;SDS011;8261;47.678;-122.174;2022-11-15T15:28:30;3.63;;;2.73;;
16304;SDS011;8261;47.678;-122.174;2022-11-15T15:31:03;4.43;;;3.07;;
16304;SDS011;8261;47.678;-122.174;2022-11-15T15:33:34;4.03;;;3.23;;
16304;SDS011;8261;47.678;-122.174;2022-11-15T15:36:10;4.03;;;3.17;;
16304;SDS011;8261;47.678;-122.174;2022-11-15T15:38:42;5.43;;;2.90;;
16304;SDS011;8261;47.678;-122.174;2022-11-15T15:41:15;4.33;;;3.07;;
16304;SDS011;8261;47.678;-122.174;2022-11-15T15:43:47;4.10;;;3.10;;
16304;SDS011;8261;47.678;-122.174;2022-11-15T15:46:19;4.63;;;3.20;;